Time;durP1;ratioP1;P1;durP2;ratioP2;P2;SDS_P1;SDS_P2;PMS_P1;PMS_P2;Temp;Humidity;BMP_temperature;BMP_pressure;BME280_temperature;BME280_humidity;BME280_pressure;Samples;Min_cycle;Max_cycle;Signal;HPM_P1;HPM_P2
2022/11/18 00:01:45;;;;;;;2.30;1.07;;;12.20;99.90;;;;;;5008809;28;20645;-29
2022/11/18 00:04:14;;;;;;;2.30;1.17;;;12.10;99.90;;;;;;5007481;28;20288;-29
2022/11/18 00:06:43;;;;;;;3.50;1.27;;;12.10;99.90;;;;;;5006855;28;20541;-29
2022/11/18 00:09:13;;;;;;;3.43;1.60;;;12.10;99.90;;;;;;5007967;28;20292;-29
2022/11/18 00:14:29;;;;;;;3.80;1.40;;;12.20;99.90;;;;;;4988685;28;20321;-28
2022/11/18 00:17:02;;;;;;;1.53;1.00;;;12.10;99.90;;;;;;4987381;28;20199;-28
2022/11/18 00:19:38;;;;;;;3.13;1.20;;;12.10;99.90;;;;;;4988889;28;20206;-29
2022/11/18 00:22:10;;;;;;;2.33;1.13;;;12.10;99.90;;;;;;4987554;28;20210;-28
2022/11/18 00:24:37;;;;;;;3.53;1.30;;;12.10;99.90;;;;;;4987937;28;20194;-28
2022/11/18 00:27:07;;;;;;;3.63;1.20;;;12.10;99.90;;;;;;4989512;28;20316;-29
2022/11/18 00:29:39;;;;;;;3.63;1.33;;;12.10;99.90;;;;;;4988499;28;20269;-28
2022/11/18 00:32:08;;;;;;;2.33;1.20;;;12.10;99.90;;;;;;4989046;28;20222;-29
2022/11/18 00:34:38;;;;;;;4.10;1.30;;;12.10;99.90;;;;;;4994443;28;20216;-29
2022/11/18 00:37:05;;;;;;;1.33;0.70;;;12.10;99.90;;;;;;5007840;28;20225;-28
2022/11/18 00:39:36;;;;;;;6.63;1.67;;;12.10;99.90;;;;;;5021845;28;20666;-28
2022/11/18 00:44:54;;;;;;;3.13;0.90;;;12.10;99.90;;;;;;5006259;28;20297;-28
2022/11/18 00:47:21;;;;;;;5.53;1.60;;;12.10;99.90;;;;;;5007379;28;20230;-29
2022/11/18 00:49:51;;;;;;;4.20;1.47;;;12.10;99.90;;;;;;5007893;28;20266;-29
2022/11/18 00:52:19;;;;;;;1.93;0.90;;;12.10;99.90;;;;;;5007472;28;20335;-28
2022/11/18 00:54:49;;;;;;;2.50;1.00;;;12.10;99.90;;;;;;5007462;28;20198;-29
2022/11/18 00:57:18;;;;;;;4.27;1.37;;;12.10;99.90;;;;;;5006743;28;20333;-29
2022/11/18 00:59:48;;;;;;;2.40;1.07;;;12.20;99.90;;;;;;5007344;28;20201;-28
2022/11/18 01:02:15;;;;;;;3.60;1.17;;;12.20;99.90;;;;;;5007252;28;20233;-28
2022/11/18 01:04:47;;;;;;;2.17;1.10;;;12.10;99.90;;;;;;5007126;28;20292;-29
2022/11/18 01:07:14;;;;;;;3.23;1.13;;;12.20;99.90;;;;;;5021903;28;20786;-28
2022/11/18 01:09:41;;;;;;;3.03;1.23;;;12.20;99.90;;;;;;5006396;28;20320;-29
2022/11/18 01:14:58;;;;;;;3.70;1.37;;;12.20;99.90;;;;;;4988070;28;20280;-28
2022/11/18 01:17:28;;;;;;;2.43;1.20;;;12.20;99.90;;;;;;5002677;28;20198;-28
2022/11/18 01:19:55;;;;;;;2.80;0.90;;;12.20;99.90;;;;;;5003022;28;20217;-29
2022/11/18 01:22:24;;;;;;;2.03;0.90;;;12.20;99.90;;;;;;5006650;28;20755;-29
2022/11/18 01:24:57;;;;;;;2.67;0.97;;;12.20;99.90;;;;;;5007055;28;20213;-29
2022/11/18 01:27:24;;;;;;;3.20;1.20;;;12.20;99.90;;;;;;5006974;28;20237;-29
2022/11/18 01:29:51;;;;;;;2.43;1.00;;;12.20;99.90;;;;;;5022213;28;20197;-29
2022/11/18 01:32:18;;;;;;;3.70;1.13;;;12.20;99.90;;;;;;5007452;28;20767;-28
2022/11/18 01:34:51;;;;;;;2.87;1.10;;;12.20;99.90;;;;;;5005303;28;20194;-29
2022/11/18 01:37:21;;;;;;;2.67;1.10;;;12.20;99.90;;;;;;5006513;28;20635;-29
2022/11/18 01:39:48;;;;;;;3.07;0.70;;;12.20;99.90;;;;;;5006428;28;20241;-29
2022/11/18 01:42:16;;;;;;;3.00;1.10;;;12.20;99.90;;;;;;5007344;28;20251;-29
2022/11/18 01:45:03;;;;;;;3.03;1.13;;;12.20;99.90;;;;;;5020827;28;20252;-28
2022/11/18 01:47:39;;;;;;;4.43;1.10;;;12.20;99.90;;;;;;5007735;28;20228;-29
2022/11/18 01:50:10;;;;;;;3.83;1.20;;;12.20;99.90;;;;;;5004598;28;20245;-29
2022/11/18 01:52:38;;;;;;;3.27;1.13;;;12.10;99.90;;;;;;4986092;28;20199;-29
2022/11/18 01:55:23;;;;;;;1.77;1.47;;;12.10;99.90;;;;;;4987140;28;20264;-29
2022/11/18 01:57:59;;;;;;;1.83;1.10;;;12.20;99.90;;;;;;4989821;28;20309;-29
2022/11/18 02:00:29;;;;;;;3.87;1.40;;;12.10;99.90;;;;;;4986525;28;20260;-29
2022/11/18 02:02:57;;;;;;;1.63;1.00;;;12.10;99.90;;;;;;4990107;28;20206;-29
2022/11/18 02:05:25;;;;;;;2.63;1.23;;;12.10;99.90;;;;;;5004273;28;20733;-28
2022/11/18 02:07:55;;;;;;;2.60;1.13;;;12.10;99.90;;;;;;4994561;28;20226;-30
2022/11/18 02:10:23;;;;;;;1.90;1.10;;;12.10;99.90;;;;;;5005815;28;20602;-31
2022/11/18 02:12:54;;;;;;;2.30;1.10;;;12.10;99.90;;;;;;5017799;28;20223;-30
2022/11/18 02:15:47;;;;;;;3.63;1.50;;;12.10;99.90;;;;;;5010653;28;20237;-31
2022/11/18 02:18:48;;;;;;;2.07;1.13;;;12.00;99.90;;;;;;5002281;28;20211;-28
2022/11/18 02:21:15;;;;;;;2.30;1.10;;;12.00;99.90;;;;;;5018086;28;20200;-29
2022/11/18 02:24:00;;;;;;;2.10;0.90;;;12.00;99.90;;;;;;5037068;28;20328;-28
2022/11/18 02:26:45;;;;;;;2.10;0.80;;;12.00;99.90;;;;;;5021293;28;20583;-29
2022/11/18 02:29:27;;;;;;;3.90;1.00;;;11.90;99.90;;;;;;5012021;28;20565;-29
2022/11/18 02:31:58;;;;;;;2.67;0.93;;;11.90;99.90;;;;;;5005416;28;20194;-29
2022/11/18 02:34:34;;;;;;;1.57;0.93;;;11.90;99.90;;;;;;5004420;28;20217;-29
2022/11/18 02:37:36;;;;;;;3.97;0.93;;;11.90;99.90;;;;;;5006032;28;20204;-29
2022/11/18 02:40:06;;;;;;;2.00;1.13;;;11.90;99.90;;;;;;5005323;28;20247;-29
2022/11/18 02:42:36;;;;;;;2.83;1.30;;;11.80;99.90;;;;;;5004142;28;20229;-28
2022/11/18 02:45:15;;;;;;;3.10;0.97;;;11.80;99.90;;;;;;5005964;28;20267;-29
2022/11/18 02:47:49;;;;;;;2.50;1.27;;;11.80;99.90;;;;;;5005633;28;20242;-29
2022/11/18 02:50:23;;;;;;;3.10;1.13;;;11.70;99.90;;;;;;5005677;28;20205;-29
2022/11/18 02:52:56;;;;;;;3.37;1.23;;;11.70;99.90;;;;;;5018648;28;20303;-29
2022/11/18 02:55:33;;;;;;;4.27;1.47;;;11.70;99.90;;;;;;5005707;28;20208;-29
2022/11/18 02:58:06;;;;;;;2.33;1.10;;;11.70;99.90;;;;;;5005446;28;20239;-29
2022/11/18 03:00:37;;;;;;;3.47;1.40;;;11.70;99.90;;;;;;5005657;28;20209;-29
2022/11/18 03:03:30;;;;;;;2.50;1.40;;;11.60;99.90;;;;;;4991159;28;20268;-29
2022/11/18 03:06:03;;;;;;;3.10;1.00;;;11.60;99.90;;;;;;5001340;28;20248;-29
2022/11/18 03:09:07;;;;;;;1.60;1.20;;;11.50;99.90;;;;;;4984951;28;20226;-29
2022/11/18 03:12:09;;;;;;;2.43;1.20;;;11.60;99.90;;;;;;4985495;28;20233;-29
2022/11/18 03:15:05;;;;;;;1.90;1.10;;;11.50;99.90;;;;;;4985849;28;20229;-29
2022/11/18 03:17:51;;;;;;;6.03;1.43;;;11.50;99.90;;;;;;4984822;28;20206;-29
2022/11/18 03:20:30;;;;;;;4.93;1.43;;;11.50;99.90;;;;;;4986183;28;20257;-29
2022/11/18 03:23:15;;;;;;;3.80;1.20;;;11.50;99.90;;;;;;4984889;28;20233;-29
2022/11/18 03:26:01;;;;;;;2.63;1.27;;;11.40;99.90;;;;;;5008058;28;20213;-29
2022/11/18 03:29:11;;;;;;;2.20;1.23;;;11.40;99.90;;;;;;5007511;28;20256;-29
2022/11/18 03:31:49;;;;;;;1.80;1.23;;;11.40;99.90;;;;;;5009336;28;20193;-29
2022/11/18 03:34:49;;;;;;;1.47;1.07;;;11.30;99.90;;;;;;5008729;28;20292;-30
2022/11/18 03:37:22;;;;;;;3.77;1.30;;;11.30;99.90;;;;;;5007481;28;20256;-29
2022/11/18 03:39:58;;;;;;;2.73;1.27;;;11.30;99.90;;;;;;5009445;28;20624;-29
2022/11/18 03:42:40;;;;;;;2.33;1.37;;;11.30;99.90;;;;;;5008916;28;20213;-29
2022/11/18 03:45:25;;;;;;;3.03;1.37;;;11.20;99.90;;;;;;5009337;28;20213;-29
2022/11/18 03:48:15;;;;;;;4.43;1.70;;;11.20;99.90;;;;;;5009067;28;20233;-30
2022/11/18 03:51:15;;;;;;;2.67;1.20;;;11.10;99.90;;;;;;5008612;28;20301;-29
2022/11/18 03:53:51;;;;;;;2.73;1.20;;;11.10;99.90;;;;;;5004840;28;20210;-29
2022/11/18 03:56:29;;;;;;;3.13;1.00;;;11.10;99.90;;;;;;5009031;28;20205;-29
2022/11/18 03:59:06;;;;;;;3.20;1.30;;;11.10;99.90;;;;;;5008532;28;20312;-29
2022/11/18 04:01:41;;;;;;;3.17;1.50;;;11.00;99.90;;;;;;5006659;28;20743;-29
2022/11/18 04:04:11;;;;;;;2.80;1.00;;;11.00;99.90;;;;;;4988989;28;20209;-29
2022/11/18 04:06:53;;;;;;;4.37;1.60;;;11.00;99.90;;;;;;4989242;28;20864;-29
2022/11/18 04:09:30;;;;;;;2.40;1.60;;;11.00;99.90;;;;;;5004144;28;20755;-29
2022/11/18 04:12:03;;;;;;;2.03;1.33;;;11.00;99.90;;;;;;5008316;28;20766;-29
2022/11/18 04:14:38;;;;;;;2.67;1.20;;;10.90;99.90;;;;;;5008363;28;20217;-29
2022/11/18 04:17:11;;;;;;;2.47;1.33;;;10.90;99.90;;;;;;5008517;28;20207;-29
2022/11/18 04:19:41;;;;;;;2.43;1.30;;;10.90;99.90;;;;;;5008284;28;20271;-29
2022/11/18 04:22:09;;;;;;;3.63;1.60;;;10.90;99.90;;;;;;5008717;28;20243;-29
2022/11/18 04:24:39;;;;;;;2.70;1.33;;;10.90;99.90;;;;;;4996579;28;21082;-30
2022/11/18 04:27:11;;;;;;;3.63;1.60;;;10.80;99.90;;;;;;4988479;28;20214;-29
2022/11/18 04:29:38;;;;;;;2.07;1.30;;;10.80;99.90;;;;;;4988529;28;20236;-29
2022/11/18 04:32:06;;;;;;;3.57;1.60;;;10.80;99.90;;;;;;5003297;28;20212;-29
2022/11/18 04:34:33;;;;;;;4.63;1.57;;;10.80;99.90;;;;;;4988065;28;20317;-29
2022/11/18 04:37:02;;;;;;;2.27;1.30;;;10.80;99.90;;;;;;4987337;28;20250;-29
2022/11/18 04:39:29;;;;;;;3.10;1.40;;;10.70;99.90;;;;;;4987740;28;21125;-29
2022/11/18 04:41:59;;;;;;;2.53;1.40;;;10.70;99.90;;;;;;4988491;28;20218;-29
2022/11/18 04:44:33;;;;;;;2.00;1.30;;;10.70;99.90;;;;;;4988863;28;20222;-29
2022/11/18 04:47:02;;;;;;;2.17;1.20;;;10.70;99.90;;;;;;4993642;28;20736;-29
2022/11/18 04:49:32;;;;;;;3.47;1.70;;;10.70;99.90;;;;;;5022460;28;20320;-29
2022/11/18 04:52:04;;;;;;;2.83;1.47;;;10.70;99.90;;;;;;5022228;28;20229;-29
2022/11/18 04:54:33;;;;;;;2.53;1.47;;;10.70;99.90;;;;;;5006956;28;20261;-29
2022/11/18 04:57:01;;;;;;;1.87;1.33;;;10.60;99.90;;;;;;5022968;28;20296;-29
2022/11/18 04:59:29;;;;;;;3.10;1.63;;;10.70;99.90;;;;;;5007589;28;20665;-29
2022/11/18 05:01:59;;;;;;;2.40;1.60;;;10.60;99.90;;;;;;5008899;28;20766;-29
2022/11/18 05:04:30;;;;;;;2.40;1.20;;;10.60;99.90;;;;;;5007249;28;20296;-29
2022/11/18 05:06:58;;;;;;;2.80;1.40;;;10.60;99.90;;;;;;5007528;28;20663;-29
2022/11/18 05:09:26;;;;;;;2.70;1.20;;;10.60;99.90;;;;;;5006585;28;20324;-29
2022/11/18 05:14:49;;;;;;;4.27;1.63;;;10.50;99.90;;;;;;5007753;28;20312;-29
2022/11/18 05:17:17;;;;;;;4.77;1.67;;;10.50;99.90;;;;;;5006254;28;20198;-29
2022/11/18 05:19:44;;;;;;;2.33;1.50;;;10.50;99.90;;;;;;5007137;28;20758;-29
2022/11/18 05:22:16;;;;;;;2.90;1.40;;;10.50;99.90;;;;;;5007877;28;20303;-29
2022/11/18 05:24:43;;;;;;;4.73;1.43;;;10.50;99.90;;;;;;5006513;28;20418;-29
2022/11/18 05:27:13;;;;;;;4.00;1.87;;;10.50;99.90;;;;;;5006884;28;20300;-29
2022/11/18 05:29:42;;;;;;;2.83;1.40;;;10.40;99.90;;;;;;5006282;28;20727;-29
2022/11/18 05:32:10;;;;;;;2.13;1.20;;;10.40;99.90;;;;;;5005601;28;20268;-29
2022/11/18 05:34:41;;;;;;;4.80;1.30;;;10.40;99.90;;;;;;5021429;28;20209;-29
2022/11/18 05:37:11;;;;;;;3.47;1.50;;;10.40;99.90;;;;;;5006482;28;20206;-29
2022/11/18 05:39:40;;;;;;;6.03;1.43;;;10.40;99.90;;;;;;5006853;28;20235;-29
2022/11/18 05:44:57;;;;;;;3.53;1.50;;;10.40;99.90;;;;;;5007067;28;20201;-29
2022/11/18 05:47:25;;;;;;;3.17;1.37;;;10.40;99.90;;;;;;5006758;28;20216;-29
2022/11/18 05:49:52;;;;;;;3.07;1.67;;;10.40;99.90;;;;;;5006879;28;20225;-29
2022/11/18 05:52:20;;;;;;;2.97;1.60;;;10.40;99.90;;;;;;5006185;28;20387;-29
2022/11/18 05:54:52;;;;;;;4.80;1.47;;;10.40;99.90;;;;;;5006489;28;20201;-29
2022/11/18 05:57:24;;;;;;;4.13;1.90;;;10.40;99.90;;;;;;5006818;28;20213;-28
2022/11/18 05:59:53;;;;;;;2.83;1.70;;;10.30;99.90;;;;;;5004073;28;20197;-29
2022/11/18 06:02:23;;;;;;;3.27;1.67;;;10.30;99.90;;;;;;4996885;28;20755;-29
2022/11/18 06:05:00;;;;;;;4.13;1.60;;;10.30;99.90;;;;;;5003308;28;20225;-29
2022/11/18 06:07:40;;;;;;;3.20;1.60;;;10.30;99.90;;;;;;5019308;28;20283;-28
2022/11/18 06:10:21;;;;;;;3.23;1.80;;;10.30;99.90;;;;;;4991513;28;20226;-30
2022/11/18 06:12:52;;;;;;;3.87;1.90;;;10.20;99.90;;;;;;5001530;28;21195;-31
2022/11/18 06:15:29;;;;;;;4.03;1.60;;;10.20;99.90;;;;;;5001913;28;20275;-30
2022/11/18 06:18:08;;;;;;;5.83;2.27;;;10.20;99.90;;;;;;5002673;28;20209;-30
2022/11/18 06:20:40;;;;;;;5.63;1.87;;;10.20;99.90;;;;;;5003304;28;20221;-30
2022/11/18 06:23:12;;;;;;;3.77;1.97;;;10.20;99.90;;;;;;5008023;28;20689;-30
2022/11/18 06:25:40;;;;;;;3.37;1.63;;;10.20;99.90;;;;;;5007256;28;20296;-30
2022/11/18 06:28:14;;;;;;;6.03;2.00;;;10.20;99.90;;;;;;5007448;28;20594;-30
2022/11/18 06:30:41;;;;;;;5.10;2.30;;;10.20;99.90;;;;;;5006588;28;20217;-31
2022/11/18 06:33:09;;;;;;;7.43;1.90;;;10.20;99.90;;;;;;5003185;28;20198;-30
2022/11/18 06:35:36;;;;;;;2.87;1.80;;;10.20;99.90;;;;;;4994749;28;20390;-28
2022/11/18 06:38:03;;;;;;;7.43;1.97;;;10.10;99.90;;;;;;5019418;28;20222;-28
2022/11/18 06:40:34;;;;;;;5.57;2.13;;;10.10;99.90;;;;;;5020944;28;20220;-28
2022/11/18 06:48:52;;;;;;;5.47;2.00;;;10.10;99.90;;;;;;5001247;28;20237;-31
2022/11/18 06:51:22;;;;;;;3.30;1.70;;;10.10;99.90;;;;;;5010580;28;20201;-30
2022/11/18 06:53:56;;;;;;;9.20;1.90;;;10.00;99.90;;;;;;5001298;28;20224;-30
2022/11/18 06:56:24;;;;;;;5.63;1.73;;;10.10;99.90;;;;;;5016626;28;20256;-30
2022/11/18 06:58:55;;;;;;;5.27;1.50;;;10.00;99.90;;;;;;5005561;28;20216;-31
2022/11/18 07:01:32;;;;;;;6.47;1.97;;;10.00;99.90;;;;;;5004976;28;20213;-31
2022/11/18 07:04:05;;;;;;;6.97;2.03;;;10.00;99.90;;;;;;5006189;28;20590;-30
2022/11/18 07:06:37;;;;;;;5.17;2.00;;;10.00;99.90;;;;;;5005634;28;20212;-31
2022/11/18 07:09:06;;;;;;;10.80;2.13;;;10.00;99.90;;;;;;4989058;28;20240;-30
2022/11/18 07:11:37;;;;;;;4.10;2.33;;;10.00;99.90;;;;;;4999004;28;20297;-31
2022/11/18 07:14:04;;;;;;;12.20;2.60;;;10.10;99.90;;;;;;5012979;28;20205;-30
2022/11/18 07:16:34;;;;;;;7.13;2.17;;;10.00;99.90;;;;;;5009407;28;20322;-30
2022/11/18 07:19:08;;;;;;;10.90;2.40;;;10.10;99.90;;;;;;5014863;28;20197;-31
2022/11/18 07:21:36;;;;;;;5.60;2.30;;;10.00;99.90;;;;;;5001027;28;20205;-30
2022/11/18 07:24:10;;;;;;;4.57;1.80;;;10.00;99.90;;;;;;5013702;28;20220;-30
2022/11/18 07:26:40;;;;;;;6.53;2.33;;;10.00;99.90;;;;;;5019462;28;20674;-30
2022/11/18 07:29:08;;;;;;;5.77;2.20;;;10.10;99.90;;;;;;5023195;28;20220;-30
2022/11/18 07:31:37;;;;;;;5.27;2.27;;;10.10;99.90;;;;;;5003455;28;20296;-30
2022/11/18 07:34:05;;;;;;;5.83;2.33;;;10.10;99.90;;;;;;5018004;28;20710;-30
2022/11/18 07:36:37;;;;;;;4.53;2.13;;;10.10;99.90;;;;;;5008775;28;20206;-31
2022/11/18 07:39:05;;;;;;;4.63;1.83;;;10.10;99.90;;;;;;5007577;28;20316;-31
2022/11/18 07:41:40;;;;;;;6.67;2.00;;;10.10;99.90;;;;;;5000735;28;20220;-30
2022/11/18 07:44:10;;;;;;;5.87;2.20;;;10.10;99.90;;;;;;5007791;28;20292;-31
2022/11/18 07:46:40;;;;;;;5.03;1.70;;;10.20;99.90;;;;;;5019459;28;20197;-30
2022/11/18 07:49:10;;;;;;;6.50;1.73;;;10.20;99.90;;;;;;5006239;28;20249;-28
2022/11/18 07:51:39;;;;;;;8.73;2.10;;;10.20;99.90;;;;;;5009201;28;20584;-28
2022/11/18 07:54:07;;;;;;;6.23;2.00;;;10.30;99.90;;;;;;5021237;28;20263;-30
2022/11/18 07:56:35;;;;;;;5.03;1.90;;;10.30;99.90;;;;;;5007609;28;20647;-31
2022/11/18 07:59:07;;;;;;;6.50;2.30;;;10.40;99.90;;;;;;5005667;28;20275;-31
2022/11/18 08:01:34;;;;;;;5.83;2.10;;;10.40;99.90;;;;;;5006178;28;20307;-31
2022/11/18 08:04:10;;;;;;;4.27;1.67;;;10.40;99.90;;;;;;5017990;28;20197;-31
2022/11/18 08:06:39;;;;;;;7.47;2.10;;;10.50;99.90;;;;;;5011928;28;20668;-29
2022/11/18 08:09:09;;;;;;;7.33;2.13;;;10.60;99.90;;;;;;4996070;28;20221;-29
2022/11/18 08:11:36;;;;;;;4.67;1.87;;;10.60;99.90;;;;;;5007596;28;20208;-29
2022/11/18 08:14:03;;;;;;;5.97;1.70;;;10.60;99.90;;;;;;5007169;28;20201;-29
2022/11/18 08:16:30;;;;;;;7.10;1.83;;;10.70;99.90;;;;;;5000411;28;20264;-29
2022/11/18 08:18:59;;;;;;;6.47;2.20;;;10.70;99.90;;;;;;5011867;28;20300;-29
2022/11/18 08:21:31;;;;;;;5.43;1.80;;;10.70;99.90;;;;;;5005568;28;20714;-29
2022/11/18 08:24:00;;;;;;;4.93;2.00;;;10.80;99.90;;;;;;5025523;28;20263;-29
2022/11/18 08:26:28;;;;;;;4.00;1.90;;;10.80;99.90;;;;;;5021218;28;21100;-29
2022/11/18 08:28:57;;;;;;;5.90;2.00;;;10.90;99.90;;;;;;5008826;28;20217;-29
2022/11/18 08:31:29;;;;;;;5.50;2.10;;;10.90;99.90;;;;;;5012852;28;20259;-29
2022/11/18 08:34:02;;;;;;;6.53;2.30;;;10.90;99.90;;;;;;5015619;28;20206;-31
2022/11/18 08:36:34;;;;;;;5.00;2.00;;;10.90;99.90;;;;;;5009338;28;21037;-29
2022/11/18 08:39:05;;;;;;;6.43;2.20;;;11.00;99.90;;;;;;5003920;28;20201;-30
2022/11/18 08:41:41;;;;;;;9.07;2.40;;;11.00;99.90;;;;;;5013585;28;20229;-29
2022/11/18 08:44:12;;;;;;;7.40;2.43;;;11.00;99.90;;;;;;5022147;28;20215;-31
2022/11/18 08:46:39;;;;;;;6.63;2.00;;;11.10;99.90;;;;;;4998646;28;20272;-32
2022/11/18 08:49:11;;;;;;;5.80;2.10;;;11.10;99.90;;;;;;5019379;28;20237;-32
2022/11/18 08:51:38;;;;;;;5.70;2.40;;;11.20;99.90;;;;;;5015565;28;20224;-32
2022/11/18 08:54:08;;;;;;;6.53;2.23;;;11.20;99.90;;;;;;5025599;28;20258;-31
2022/11/18 08:56:35;;;;;;;8.27;2.40;;;11.20;99.90;;;;;;5015266;28;20683;-29
2022/11/18 08:59:02;;;;;;;6.40;2.47;;;11.30;99.90;;;;;;5005822;28;20767;-30
2022/11/18 09:01:29;;;;;;;4.70;2.20;;;11.30;99.90;;;;;;5019155;28;20731;-29
2022/11/18 09:03:59;;;;;;;6.53;2.00;;;11.30;99.90;;;;;;5018078;28;20221;-29
2022/11/18 09:06:29;;;;;;;4.73;2.00;;;11.40;99.90;;;;;;5009159;28;20552;-29
2022/11/18 09:08:56;;;;;;;7.30;3.40;;;11.40;99.90;;;;;;5014539;28;20219;-29
2022/11/18 09:11:36;;;;;;;5.20;2.00;;;11.50;99.90;;;;;;5000489;28;20210;-29
2022/11/18 09:14:04;;;;;;;5.83;1.90;;;11.50;99.90;;;;;;5005404;28;20206;-29
2022/11/18 09:16:51;;;;;;;6.33;2.30;;;11.50;99.90;;;;;;5021430;28;20634;-29
2022/11/18 09:19:18;;;;;;;7.47;2.43;;;11.50;99.90;;;;;;5018628;28;20205;-29
2022/11/18 09:22:08;;;;;;;6.13;2.33;;;11.50;99.90;;;;;;5020513;28;20215;-29
2022/11/18 09:24:36;;;;;;;8.30;2.47;;;11.60;99.90;;;;;;5021663;28;20219;-29
2022/11/18 09:27:08;;;;;;;7.57;2.03;;;11.60;99.90;;;;;;5015148;28;20739;-29
2022/11/18 09:29:42;;;;;;;6.47;1.97;;;11.60;99.90;;;;;;5005287;28;20571;-29
2022/11/18 09:32:09;;;;;;;6.57;2.30;;;11.70;99.90;;;;;;5010591;28;20209;-29
2022/11/18 09:34:39;;;;;;;6.97;1.80;;;11.70;99.90;;;;;;5004702;28;20291;-29
2022/11/18 09:37:09;;;;;;;3.73;2.10;;;11.70;99.90;;;;;;5017195;28;20996;-29
2022/11/18 09:39:41;;;;;;;8.47;2.57;;;11.70;99.90;;;;;;5025228;28;20227;-29
2022/11/18 09:42:23;;;;;;;8.20;1.90;;;11.80;99.90;;;;;;5016129;28;20756;-29
2022/11/18 09:45:09;;;;;;;4.30;1.87;;;11.80;99.90;;;;;;5005343;28;20698;-29
2022/11/18 09:47:43;;;;;;;8.70;2.20;;;11.80;99.90;;;;;;5004939;28;20245;-29
2022/11/18 09:50:15;;;;;;;5.20;1.77;;;11.90;99.90;;;;;;5006336;28;20229;-29
2022/11/18 09:53:22;;;;;;;4.37;1.80;;;11.90;99.90;;;;;;4999624;28;20194;-30
2022/11/18 09:55:54;;;;;;;5.00;2.30;;;11.90;99.90;;;;;;5018474;28;20207;-30
2022/11/18 09:58:34;;;;;;;6.80;2.57;;;11.90;99.90;;;;;;5022972;28;20232;-29
2022/11/18 10:01:08;;;;;;;5.70;1.90;;;12.00;99.90;;;;;;4990743;28;20298;-29
2022/11/18 10:03:40;;;;;;;5.37;1.73;;;12.00;99.90;;;;;;5005525;28;20213;-29
2022/11/18 10:06:25;;;;;;;6.07;1.60;;;12.10;99.90;;;;;;5005070;28;20647;-29
2022/11/18 10:09:12;;;;;;;5.03;1.83;;;12.10;99.90;;;;;;5024541;28;20249;-29
2022/11/18 10:12:01;;;;;;;3.70;2.03;;;12.10;99.90;;;;;;5012778;28;20717;-29
2022/11/18 10:15:06;;;;;;;4.90;2.00;;;12.20;99.90;;;;;;5003732;28;20259;-29
2022/11/18 10:17:48;;;;;;;5.67;2.00;;;12.20;99.90;;;;;;5005120;28;20324;-30
2022/11/18 10:20:42;;;;;;;5.50;1.87;;;12.20;99.90;;;;;;5005602;28;20213;-29
2022/11/18 10:23:23;;;;;;;10.67;1.73;;;12.30;99.90;;;;;;5022716;28;20283;-28
2022/11/18 10:25:53;;;;;;;6.93;2.40;;;12.30;99.90;;;;;;4986052;28;20220;-28
2022/11/18 10:28:28;;;;;;;4.70;2.00;;;12.40;99.90;;;;;;4985618;28;20202;-29
2022/11/18 10:31:09;;;;;;;3.93;2.00;;;12.40;99.90;;;;;;5019141;28;20304;-28
2022/11/18 10:33:39;;;;;;;5.23;1.80;;;12.40;99.90;;;;;;5010840;28;20239;-29
2022/11/18 10:36:18;;;;;;;5.70;2.10;;;12.40;99.90;;;;;;5017491;28;20257;-28
2022/11/18 10:38:45;;;;;;;4.17;1.63;;;12.50;99.90;;;;;;5039351;28;20316;-29
2022/11/18 10:41:19;;;;;;;3.63;1.60;;;12.50;99.90;;;;;;5006944;28;20223;-29
2022/11/18 10:43:56;;;;;;;6.40;1.80;;;12.60;99.90;;;;;;5023367;28;20216;-29
2022/11/18 10:46:26;;;;;;;4.50;1.87;;;12.60;99.90;;;;;;5006439;28;20653;-28
2022/11/18 10:49:11;;;;;;;7.70;2.07;;;12.60;99.90;;;;;;5005675;28;20260;-29
2022/11/18 10:51:48;;;;;;;7.80;2.20;;;12.70;99.90;;;;;;5011391;28;20213;-28
2022/11/18 10:54:23;;;;;;;3.27;1.67;;;12.70;99.90;;;;;;5013165;28;20201;-28
2022/11/18 10:56:55;;;;;;;4.40;1.80;;;12.70;99.90;;;;;;5003985;28;20205;-28
2022/11/18 10:59:35;;;;;;;6.13;1.90;;;12.70;99.90;;;;;;5002059;28;20211;-28
2022/11/18 11:02:12;;;;;;;3.83;1.70;;;12.80;99.90;;;;;;5007149;28;20723;-28
2022/11/18 11:04:50;;;;;;;4.03;1.90;;;12.80;99.90;;;;;;5006872;28;20209;-28
2022/11/18 11:07:24;;;;;;;6.60;1.90;;;12.90;99.90;;;;;;5001343;28;20218;-28
2022/11/18 11:10:21;;;;;;;5.37;2.17;;;12.90;99.90;;;;;;5016654;28;20590;-28
2022/11/18 11:13:01;;;;;;;5.40;1.67;;;12.90;99.90;;;;;;4996557;28;20272;-28
2022/11/18 11:15:40;;;;;;;5.57;2.30;;;13.00;99.90;;;;;;5021448;28;20683;-29
2022/11/18 11:18:42;;;;;;;4.33;1.53;;;13.00;99.90;;;;;;5016200;28;20255;-29
2022/11/18 11:21:18;;;;;;;5.77;1.70;;;13.00;99.90;;;;;;5009475;28;20209;-29
2022/11/18 11:23:46;;;;;;;3.93;1.70;;;13.10;99.90;;;;;;5017176;28;20213;-29
2022/11/18 11:26:19;;;;;;;5.33;1.80;;;13.10;99.90;;;;;;5024704;28;20220;-29
2022/11/18 11:29:17;;;;;;;5.57;1.63;;;13.10;99.90;;;;;;5024378;28;20217;-29
2022/11/18 11:32:26;;;;;;;2.60;1.60;;;13.20;99.90;;;;;;5012076;28;20622;-29
2022/11/18 11:34:56;;;;;;;5.87;1.90;;;13.20;99.90;;;;;;5020014;28;20236;-29
2022/11/18 11:37:36;;;;;;;4.23;1.70;;;13.20;99.90;;;;;;5009374;28;20197;-29
2022/11/18 11:40:22;;;;;;;8.83;1.90;;;13.20;99.90;;;;;;5002728;28;20300;-29
2022/11/18 11:43:24;;;;;;;4.07;1.40;;;13.20;99.90;;;;;;5012229;28;20262;-29
2022/11/18 11:46:15;;;;;;;5.27;1.60;;;13.30;99.90;;;;;;5025758;28;20299;-29
2022/11/18 11:49:01;;;;;;;8.27;1.80;;;13.20;99.90;;;;;;5023810;28;20255;-29
2022/11/18 11:51:54;;;;;;;4.33;1.67;;;13.30;99.90;;;;;;5006593;28;20640;-28
2022/11/18 11:54:41;;;;;;;6.07;1.40;;;13.30;99.90;;;;;;5002723;28;20238;-28
2022/11/18 11:57:32;;;;;;;7.37;2.03;;;13.30;99.90;;;;;;4990154;28;20607;-28
2022/11/18 12:00:14;;;;;;;5.77;1.67;;;13.30;99.90;;;;;;4989373;28;20649;-28
2022/11/18 12:03:03;;;;;;;7.53;1.43;;;13.30;99.90;;;;;;4996928;28;20344;-28
2022/11/18 12:05:38;;;;;;;5.27;1.40;;;13.30;99.90;;;;;;5010214;28;20217;-31
2022/11/18 12:08:11;;;;;;;6.03;1.60;;;13.30;99.90;;;;;;5007675;28;20204;-31
2022/11/18 12:10:51;;;;;;;3.40;1.57;;;13.30;99.90;;;;;;5008867;28;20221;-31
2022/11/18 12:13:31;;;;;;;8.10;1.60;;;13.40;99.90;;;;;;5003909;28;20223;-28
2022/11/18 12:16:34;;;;;;;6.17;1.47;;;13.40;99.90;;;;;;5008771;28;20203;-28
2022/11/18 12:19:16;;;;;;;12.73;2.10;;;13.40;99.90;;;;;;5027769;28;20205;-28
2022/11/18 12:21:46;;;;;;;5.47;1.80;;;13.40;99.90;;;;;;5015552;28;20221;-28
2022/11/18 12:24:39;;;;;;;7.53;1.60;;;13.40;99.90;;;;;;5006316;28;20213;-28
2022/11/18 12:27:13;;;;;;;7.73;1.70;;;13.40;99.90;;;;;;5008886;28;20731;-28
2022/11/18 12:29:52;;;;;;;6.33;1.80;;;13.40;99.90;;;;;;5011137;28;20610;-28
2022/11/18 12:32:27;;;;;;;3.50;1.20;;;13.40;99.90;;;;;;5001847;28;20208;-28
2022/11/18 12:35:03;;;;;;;5.90;1.60;;;13.40;99.90;;;;;;5010028;28;20267;-28
2022/11/18 12:37:32;;;;;;;2.83;1.20;;;13.40;99.90;;;;;;5022697;28;20210;-28
2022/11/18 12:40:00;;;;;;;4.10;1.60;;;13.40;99.90;;;;;;5006486;28;20218;-28
2022/11/18 12:45:44;;;;;;;7.80;1.80;;;13.40;99.90;;;;;;4989842;28;20674;-28
2022/11/18 12:48:23;;;;;;;5.13;1.70;;;13.40;99.90;;;;;;5015593;28;20292;-28
2022/11/18 12:51:30;;;;;;;6.80;1.80;;;13.40;99.90;;;;;;5005997;28;20708;-28
2022/11/18 12:54:14;;;;;;;6.23;1.60;;;13.40;99.90;;;;;;4996441;28;20193;-28
2022/11/18 12:56:44;;;;;;;5.43;1.70;;;13.40;99.90;;;;;;5022611;28;20769;-28
2022/11/18 12:59:12;;;;;;;6.73;1.73;;;13.50;99.90;;;;;;5021128;28;20622;-28
2022/11/18 13:01:41;;;;;;;5.67;1.40;;;13.50;99.90;;;;;;5022942;28;20702;-28
2022/11/18 13:04:15;;;;;;;4.53;1.40;;;13.50;99.90;;;;;;5012343;28;20610;-28
2022/11/18 13:06:46;;;;;;;4.63;1.47;;;13.50;99.90;;;;;;5010854;28;20217;-29
2022/11/18 13:09:21;;;;;;;5.47;1.63;;;13.50;99.90;;;;;;5001493;28;20213;-28
2022/11/18 13:11:59;;;;;;;4.57;1.33;;;13.50;99.90;;;;;;5016068;28;20216;-28
2022/11/18 13:17:51;;;;;;;4.43;1.50;;;13.50;99.90;;;;;;5020461;28;20203;-28
2022/11/18 13:20:41;;;;;;;4.87;1.63;;;13.50;99.90;;;;;;5018921;28;20233;-28
2022/11/18 13:26:36;;;;;;;4.17;1.63;;;13.50;99.90;;;;;;5018494;28;20324;-28
2022/11/18 13:29:25;;;;;;;5.00;1.60;;;13.50;99.90;;;;;;5001509;28;20229;-28
2022/11/18 13:32:15;;;;;;;2.63;1.60;;;13.50;99.90;;;;;;5020387;28;20225;-28
2022/11/18 13:34:49;;;;;;;4.57;1.60;;;13.50;99.90;;;;;;5007878;28;20205;-28
2022/11/18 13:37:24;;;;;;;5.23;1.73;;;13.50;99.90;;;;;;5009530;28;20256;-28
2022/11/18 13:39:52;;;;;;;3.00;1.30;;;13.50;99.90;;;;;;5024122;28;20369;-28
2022/11/18 13:42:31;;;;;;;4.00;1.53;;;13.50;99.90;;;;;;5008183;28;20617;-28
2022/11/18 13:45:01;;;;;;;3.10;1.67;;;13.50;99.90;;;;;;5006757;28;20197;-30
2022/11/18 13:47:38;;;;;;;4.23;1.60;;;13.50;99.90;;;;;;5004932;28;20589;-29
2022/11/18 13:50:33;;;;;;;7.00;2.30;;;13.50;99.90;;;;;;5021940;28;20270;-29
2022/11/18 13:53:18;;;;;;;4.10;2.13;;;13.60;99.90;;;;;;5005135;28;20234;-30
2022/11/18 13:56:05;;;;;;;7.30;1.90;;;13.60;99.90;;;;;;5005097;28;20205;-29